createdAt,value
2023-01-06T00:01:33.514Z,47.55
2023-01-06T00:04:01.424Z,48.53
2023-01-06T00:06:31.017Z,51.03
2023-01-06T00:09:00.777Z,49.95
2023-01-06T00:11:27.677Z,51.53
2023-01-06T00:13:56.248Z,50.50
2023-01-06T00:16:23.396Z,46.95
2023-01-06T00:18:54.109Z,45.75
2023-01-06T00:21:21.140Z,49.95
2023-01-06T00:23:48.002Z,46.05
2023-01-06T00:26:14.936Z,51.15
2023-01-06T00:28:41.909Z,47.30
2023-01-06T00:31:10.902Z,48.13
2023-01-06T00:33:38.642Z,43.90
2023-01-06T00:39:03.730Z,47.42
2023-01-06T00:41:48.980Z,48.53
2023-01-06T00:44:15.937Z,53.47
2023-01-06T00:46:42.976Z,51.50
2023-01-06T00:49:09.875Z,48.33
2023-01-06T00:51:38.888Z,51.97
2023-01-06T00:54:11.166Z,50.88
2023-01-06T00:56:39.737Z,50.25
2023-01-06T00:59:07.393Z,49.75
2023-01-06T01:01:35.466Z,54.53
2023-01-06T01:04:02.670Z,54.22
2023-01-06T01:06:29.528Z,48.47
2023-01-06T01:08:57.924Z,45.53
2023-01-06T01:11:44.309Z,49.17
2023-01-06T01:14:13.080Z,44.97
2023-01-06T01:16:41.512Z,47.17
2023-01-06T01:19:09.006Z,45.53
2023-01-06T01:21:35.893Z,43.22
2023-01-06T01:24:02.773Z,43.75
2023-01-06T01:26:29.681Z,49.47
2023-01-06T01:28:56.763Z,40.92
2023-01-06T01:31:23.603Z,45.25
2023-01-06T01:33:50.527Z,42.88
2023-01-06T01:36:18.705Z,42.78
2023-01-06T01:38:45.547Z,48.80
2023-01-06T01:41:17.630Z,45.20
2023-01-06T01:43:45.649Z,44.08
2023-01-06T01:46:14.668Z,45.33
2023-01-06T01:48:41.628Z,44.45
2023-01-06T01:51:14.156Z,49.65
2023-01-06T01:53:52.251Z,46.33
2023-01-06T01:56:24.838Z,45.08
2023-01-06T01:59:00.033Z,47.33
2023-01-06T02:01:27.375Z,43.75
2023-01-06T02:03:54.773Z,44.00
2023-01-06T02:06:24.753Z,44.35
2023-01-06T02:09:04.414Z,44.83
2023-01-06T02:11:34.155Z,45.53
2023-01-06T02:14:13.124Z,46.45
2023-01-06T02:16:54.942Z,43.20
2023-01-06T02:19:35.082Z,47.55
2023-01-06T02:22:38.672Z,44.53
2023-01-06T02:25:35.311Z,43.28
2023-01-06T02:28:22.371Z,42.22
2023-01-06T02:31:11.080Z,43.90
2023-01-06T02:33:46.375Z,41.50
2023-01-06T02:36:40.285Z,42.40
2023-01-06T02:39:15.079Z,40.40
2023-01-06T02:42:11.260Z,46.85
2023-01-06T02:44:55.699Z,42.67
2023-01-06T02:47:56.741Z,45.03
2023-01-06T02:50:43.959Z,44.00
2023-01-06T02:53:50.747Z,43.58
2023-01-06T02:56:21.684Z,50.40
2023-01-06T03:02:31.467Z,48.42
2023-01-06T03:05:01.776Z,45.53
2023-01-06T03:07:31.362Z,46.05
2023-01-06T03:10:01.513Z,44.80
2023-01-06T03:12:41.580Z,46.08
2023-01-06T03:15:09.414Z,45.70
2023-01-06T03:17:36.466Z,46.08
2023-01-06T03:20:03.589Z,47.58
2023-01-06T03:22:31.929Z,44.88
2023-01-06T03:25:00.641Z,48.75
2023-01-06T03:27:28.103Z,45.00
2023-01-06T03:29:55.276Z,46.92
2023-01-06T03:32:30.961Z,48.65
2023-01-06T03:35:08.502Z,46.97
2023-01-06T03:37:54.343Z,47.20
2023-01-06T03:40:42.143Z,43.80
2023-01-06T03:43:35.584Z,44.95
2023-01-06T03:46:19.103Z,47.65
2023-01-06T03:49:01.075Z,42.72
2023-01-06T03:51:53.330Z,46.58
2023-01-06T03:54:33.583Z,44.40
2023-01-06T03:57:15.296Z,44.58
2023-01-06T03:59:48.836Z,47.50
2023-01-06T04:02:18.924Z,44.50
2023-01-06T04:05:00.120Z,45.90
2023-01-06T04:07:26.971Z,46.40
2023-01-06T04:09:53.811Z,46.72
2023-01-06T04:12:38.670Z,46.80
2023-01-06T04:15:12.086Z,43.47
2023-01-06T04:17:40.471Z,43.40
2023-01-06T04:20:10.408Z,44.20
2023-01-06T04:22:37.304Z,43.03
2023-01-06T04:25:05.524Z,45.55
2023-01-06T04:27:32.440Z,41.45
2023-01-06T04:29:59.445Z,46.35
2023-01-06T04:32:26.322Z,43.10
2023-01-06T04:34:53.169Z,38.95
2023-01-06T04:37:21.419Z,43.60
2023-01-06T04:39:48.586Z,39.78
2023-01-06T04:42:15.693Z,42.15
2023-01-06T04:44:42.925Z,40.20
2023-01-06T04:47:10.837Z,42.00
2023-01-06T04:49:38.119Z,45.63
2023-01-06T04:52:05.635Z,43.78
2023-01-06T04:54:32.613Z,39.60
2023-01-06T04:56:59.402Z,49.17
2023-01-06T04:59:26.347Z,39.50
2023-01-06T05:01:53.236Z,41.90
2023-01-06T05:04:20.454Z,42.00
2023-01-06T05:06:47.258Z,41.80
2023-01-06T05:09:14.182Z,48.58
2023-01-06T05:11:41.237Z,44.70
2023-01-06T05:14:08.086Z,42.53
2023-01-06T05:16:35.320Z,40.65
2023-01-06T05:19:02.239Z,40.50
2023-01-06T05:21:32.483Z,34.10
2023-01-06T05:24:00.373Z,35.33
2023-01-06T05:26:28.749Z,33.95
2023-01-06T05:28:55.921Z,40.20
2023-01-06T05:31:23.428Z,36.67
2023-01-06T05:33:50.425Z,38.40
2023-01-06T05:36:18.305Z,35.63
2023-01-06T05:38:50.874Z,42.58
2023-01-06T05:41:17.899Z,41.53
2023-01-06T05:43:44.822Z,44.67
2023-01-06T05:46:12.523Z,37.92
2023-01-06T05:48:39.933Z,38.67
2023-01-06T05:51:09.460Z,43.63
2023-01-06T05:53:39.063Z,39.92
2023-01-06T05:56:08.321Z,38.00
2023-01-06T05:58:36.736Z,43.85
2023-01-06T06:01:04.903Z,43.40
2023-01-06T06:03:32.256Z,46.90
2023-01-06T06:06:03.819Z,45.75
2023-01-06T06:08:30.659Z,45.83
2023-01-06T06:11:02.218Z,43.45
2023-01-06T06:13:29.012Z,43.88
2023-01-06T06:16:05.518Z,47.90
2023-01-06T06:18:32.606Z,44.30
2023-01-06T06:21:03.779Z,45.90
2023-01-06T06:23:31.134Z,45.75
2023-01-06T06:25:58.383Z,48.22
2023-01-06T06:28:25.203Z,44.47
2023-01-06T06:30:53.157Z,48.60
2023-01-06T06:33:21.212Z,45.45
2023-01-06T06:35:57.877Z,46.97
2023-01-06T06:38:25.112Z,46.97
2023-01-06T06:40:52.247Z,50.08
2023-01-06T06:43:19.220Z,50.00
2023-01-06T06:45:47.060Z,54.22
2023-01-06T06:48:14.711Z,48.30
2023-01-06T06:50:41.608Z,47.05
2023-01-06T06:53:08.987Z,47.42
2023-01-06T06:55:35.998Z,45.83
2023-01-06T06:58:02.889Z,51.35
2023-01-06T07:00:30.543Z,49.20
2023-01-06T07:02:57.525Z,47.50
2023-01-06T07:05:25.785Z,50.45
2023-01-06T07:07:52.722Z,52.47
2023-01-06T07:10:19.682Z,52.40
2023-01-06T07:12:46.497Z,54.83
2023-01-06T07:15:13.499Z,53.97
2023-01-06T07:17:41.911Z,56.92
2023-01-06T07:20:09.762Z,55.22
2023-01-06T07:22:40.504Z,50.45
2023-01-06T07:25:09.067Z,54.40
2023-01-06T07:27:36.414Z,56.28
2023-01-06T07:30:05.474Z,53.60
2023-01-06T07:32:32.767Z,53.40
2023-01-06T07:34:59.623Z,54.08
2023-01-06T07:37:26.546Z,56.30
2023-01-06T07:39:53.417Z,55.83
2023-01-06T07:42:20.759Z,58.50
2023-01-06T07:44:47.560Z,53.67
2023-01-06T07:47:14.731Z,57.80
2023-01-06T07:49:41.645Z,58.92
2023-01-06T07:52:08.565Z,55.88
2023-01-06T07:54:35.499Z,55.03
2023-01-06T07:57:02.515Z,56.95
2023-01-06T07:59:29.429Z,60.20
2023-01-06T08:01:56.328Z,54.65
2023-01-06T08:04:23.412Z,55.67
2023-01-06T08:06:50.815Z,56.20
2023-01-06T08:09:17.824Z,54.03
2023-01-06T08:11:44.603Z,57.70
2023-01-06T08:14:12.806Z,54.25
2023-01-06T08:16:40.545Z,53.65
2023-01-06T08:19:07.735Z,56.17
2023-01-06T08:21:34.618Z,50.75
2023-01-06T08:24:01.424Z,52.30
2023-01-06T08:26:28.680Z,51.95
2023-01-06T08:29:03.369Z,61.95
2023-01-06T08:31:30.360Z,55.17
2023-01-06T08:33:57.234Z,52.47
2023-01-06T08:36:27.853Z,56.47
2023-01-06T08:38:54.740Z,51.50
2023-01-06T08:41:21.878Z,57.22
2023-01-06T08:43:51.060Z,52.72
2023-01-06T08:46:20.062Z,48.97
2023-01-06T08:48:48.010Z,47.33
2023-01-06T08:51:18.800Z,49.45
2023-01-06T08:53:46.199Z,46.50
2023-01-06T08:56:25.460Z,47.83
2023-01-06T08:58:55.033Z,51.17
2023-01-06T09:01:28.834Z,48.55
2023-01-06T09:03:57.561Z,50.22
2023-01-06T09:06:24.751Z,53.00
2023-01-06T09:08:51.847Z,52.97
2023-01-06T09:11:20.893Z,50.78
2023-01-06T09:13:50.570Z,44.83
2023-01-06T09:16:18.131Z,52.10
2023-01-06T09:18:49.799Z,48.50
2023-01-06T09:21:22.488Z,48.70
2023-01-06T09:23:49.578Z,53.63
2023-01-06T09:26:19.320Z,48.75
2023-01-06T09:28:47.699Z,48.80
2023-01-06T09:31:14.771Z,50.65
2023-01-06T09:33:41.633Z,48.83
2023-01-06T09:36:08.713Z,47.17
2023-01-06T09:38:35.823Z,50.05
2023-01-06T09:41:36.134Z,48.60
2023-01-06T09:44:25.836Z,47.95
2023-01-06T09:46:53.036Z,46.92
2023-01-06T09:49:27.005Z,43.53
2023-01-06T09:52:01.559Z,48.25
2023-01-06T09:54:34.977Z,44.45
2023-01-06T09:57:12.193Z,43.20
2023-01-06T09:59:54.247Z,43.72
2023-01-06T10:02:35.187Z,44.97
2023-01-06T10:05:08.606Z,44.67
2023-01-06T10:08:00.540Z,47.63
2023-01-06T10:10:38.022Z,41.20
2023-01-06T10:13:10.631Z,41.25
2023-01-06T10:15:48.997Z,41.60
2023-01-06T10:18:43.693Z,44.00
2023-01-06T10:21:28.130Z,44.03
2023-01-06T10:24:20.838Z,40.80
2023-01-06T10:27:04.381Z,41.40
2023-01-06T10:29:37.315Z,42.50
2023-01-06T10:32:11.908Z,48.33
2023-01-06T10:34:38.986Z,40.80
2023-01-06T10:37:23.730Z,41.78
2023-01-06T10:40:02.339Z,42.55
2023-01-06T10:42:56.292Z,41.92
2023-01-06T10:45:43.299Z,43.78
2023-01-06T10:48:25.937Z,37.08
2023-01-06T10:51:35.232Z,41.42
2023-01-06T10:54:13.897Z,43.45
2023-01-06T10:57:04.786Z,40.00
2023-01-06T10:59:33.062Z,36.95
2023-01-06T11:02:04.170Z,38.33
2023-01-06T11:04:32.587Z,37.65
2023-01-06T11:07:03.890Z,39.92
2023-01-06T11:09:42.745Z,39.90
2023-01-06T11:12:24.685Z,43.45
2023-01-06T11:15:00.912Z,38.55
2023-01-06T11:17:29.154Z,42.35
2023-01-06T11:20:14.276Z,39.28
2023-01-06T11:22:44.110Z,40.45
2023-01-06T11:28:23.804Z,38.72
2023-01-06T11:31:14.329Z,44.25
2023-01-06T11:33:48.891Z,35.28
2023-01-06T11:36:17.485Z,36.50
2023-01-06T11:38:50.715Z,36.00
2023-01-06T11:41:30.439Z,32.55
2023-01-06T11:44:30.950Z,37.03
2023-01-06T11:47:02.535Z,37.10
2023-01-06T11:49:51.978Z,39.00
2023-01-06T11:52:33.626Z,36.10
2023-01-06T11:55:12.278Z,37.03
2023-01-06T11:57:56.616Z,38.28
2023-01-06T12:00:36.813Z,37.42
2023-01-06T12:03:31.385Z,37.05
2023-01-06T12:06:04.724Z,38.25
2023-01-06T12:08:55.882Z,39.55
2023-01-06T12:11:47.680Z,35.40
2023-01-06T12:14:28.538Z,36.33
2023-01-06T12:17:25.532Z,42.00
2023-01-06T12:19:58.489Z,36.47
2023-01-06T12:25:33.944Z,34.58
2023-01-06T12:28:09.793Z,36.00
2023-01-06T12:31:00.641Z,34.15
2023-01-06T12:33:59.728Z,36.92
2023-01-06T12:39:47.964Z,40.88
2023-01-06T12:42:20.852Z,36.80
2023-01-06T12:45:17.270Z,39.40
2023-01-06T12:47:59.295Z,40.38
2023-01-06T12:50:48.861Z,38.53
2023-01-06T12:53:30.931Z,35.03
2023-01-06T12:56:22.851Z,35.65
2023-01-06T12:59:12.344Z,35.65
2023-01-06T13:01:50.638Z,41.72
2023-01-06T13:04:55.020Z,36.65
2023-01-06T13:07:39.890Z,38.10
2023-01-06T13:10:38.309Z,36.92
2023-01-06T13:13:28.581Z,39.10
2023-01-06T13:16:10.343Z,40.10
2023-01-06T13:19:13.662Z,40.33
2023-01-06T13:21:43.423Z,38.92
2023-01-06T13:24:19.318Z,45.42
2023-01-06T13:27:19.948Z,40.10
2023-01-06T13:30:05.705Z,39.85
2023-01-06T13:32:59.666Z,40.55
2023-01-06T13:35:48.952Z,43.03
2023-01-06T13:38:28.422Z,40.33
2023-01-06T13:41:00.156Z,41.42
2023-01-06T13:43:32.306Z,44.67
2023-01-06T13:46:16.503Z,40.28
2023-01-06T13:49:04.932Z,41.50
2023-01-06T13:51:37.750Z,40.25
2023-01-06T13:54:06.188Z,41.90
2023-01-06T13:56:36.256Z,41.17
2023-01-06T13:59:21.737Z,41.03
2023-01-06T14:01:50.133Z,40.03
2023-01-06T14:04:29.294Z,45.75
2023-01-06T14:06:56.500Z,43.35
2023-01-06T14:09:23.869Z,42.92
2023-01-06T14:11:51.546Z,45.05
2023-01-06T14:14:29.029Z,40.83
2023-01-06T14:16:59.730Z,43.28
2023-01-06T14:19:42.303Z,39.67
2023-01-06T14:22:25.176Z,42.47
2023-01-06T14:24:56.028Z,46.38
2023-01-06T14:27:46.040Z,46.80
2023-01-06T14:30:52.939Z,44.22
2023-01-06T14:33:25.120Z,44.08
2023-01-06T14:38:26.921Z,44.53
2023-01-06T14:41:01.963Z,45.05
2023-01-06T14:43:43.995Z,44.17
2023-01-06T14:46:23.184Z,48.17
2023-01-06T14:49:04.033Z,44.40
2023-01-06T14:51:34.616Z,49.15
2023-01-06T14:54:14.250Z,43.65
2023-01-06T14:56:41.880Z,45.45
2023-01-06T14:59:15.871Z,46.65
2023-01-06T15:01:45.356Z,43.38
2023-01-06T15:04:24.877Z,43.45
2023-01-06T15:07:12.756Z,45.90
2023-01-06T15:09:41.761Z,49.15
2023-01-06T15:12:32.404Z,48.70
2023-01-06T15:15:35.215Z,47.83
2023-01-06T15:18:02.817Z,45.95
2023-01-06T15:20:38.534Z,45.72
2023-01-06T15:23:05.622Z,48.30
2023-01-06T15:25:35.765Z,45.72
2023-01-06T15:28:02.781Z,45.10
2023-01-06T15:30:34.973Z,42.90
2023-01-06T15:35:34.152Z,47.50
2023-01-06T15:38:19.179Z,45.70
2023-01-06T15:40:46.240Z,63.45
2023-01-06T15:43:23.696Z,48.85
2023-01-06T15:49:07.168Z,50.58
2023-01-06T15:51:34.669Z,46.10
2023-01-06T15:54:02.172Z,45.28
2023-01-06T15:56:33.203Z,51.28
2023-01-06T15:59:01.950Z,47.65
2023-01-06T16:01:29.164Z,47.65
2023-01-06T16:04:01.364Z,50.45
2023-01-06T16:09:38.033Z,48.88
2023-01-06T16:12:04.881Z,51.75
2023-01-06T16:14:38.937Z,52.58
2023-01-06T16:17:14.531Z,67.97
2023-01-06T16:20:00.120Z,49.92
2023-01-06T16:22:32.620Z,48.58
2023-01-06T16:25:25.006Z,47.83
2023-01-06T16:28:05.916Z,47.70
2023-01-06T16:30:36.814Z,46.72
2023-01-06T16:33:06.980Z,51.55
2023-01-06T16:35:42.981Z,48.22
2023-01-06T16:38:14.498Z,49.65
2023-01-06T16:40:41.691Z,52.58
2023-01-06T16:43:08.884Z,50.20
2023-01-06T16:45:42.250Z,49.72
2023-01-06T16:48:17.770Z,46.72
2023-01-06T16:50:54.854Z,48.08
2023-01-06T16:53:33.781Z,51.50
2023-01-06T16:56:03.992Z,50.33
2023-01-06T16:58:42.891Z,52.15
2023-01-06T17:01:27.188Z,50.10
2023-01-06T17:04:15.642Z,50.10
2023-01-06T17:06:48.150Z,54.50
2023-01-06T17:09:15.460Z,53.78
2023-01-06T17:11:43.262Z,59.75
2023-01-06T17:14:19.015Z,57.53
2023-01-06T17:16:48.455Z,52.92
2023-01-06T17:19:23.401Z,49.67
2023-01-06T17:21:53.055Z,51.75
2023-01-06T17:24:25.869Z,50.47
2023-01-06T17:27:26.958Z,52.50
2023-01-06T17:30:00.597Z,54.17
2023-01-06T17:32:40.272Z,51.85
2023-01-06T17:35:28.638Z,54.55
2023-01-06T17:38:00.660Z,50.95
2023-01-06T17:40:38.815Z,51.97
2023-01-06T17:43:18.427Z,57.40
2023-01-06T17:46:06.821Z,52.05
2023-01-06T17:48:34.776Z,53.63
2023-01-06T17:54:11.350Z,54.28
2023-01-06T17:56:38.925Z,54.78
2023-01-06T17:59:15.722Z,57.17
2023-01-06T18:01:45.903Z,52.15
2023-01-06T18:04:16.718Z,51.50
2023-01-06T18:06:54.450Z,58.30
2023-01-06T18:09:23.714Z,52.00
2023-01-06T18:11:52.651Z,53.72
2023-01-06T18:14:51.481Z,54.90
2023-01-06T18:17:25.938Z,53.60
2023-01-06T18:19:52.909Z,54.65
2023-01-06T18:22:23.203Z,55.88
2023-01-06T18:24:58.037Z,49.35
2023-01-06T18:30:23.789Z,56.63
2023-01-06T18:32:54.322Z,49.33
2023-01-06T18:35:28.964Z,49.53
2023-01-06T18:38:02.398Z,60.28
2023-01-06T18:40:36.489Z,52.97
2023-01-06T18:46:19.786Z,59.28
2023-01-06T18:48:48.311Z,55.00
2023-01-06T18:51:33.391Z,59.92
2023-01-06T18:54:08.139Z,58.80
2023-01-06T19:02:35.907Z,57.65
2023-01-06T19:05:11.578Z,60.70
2023-01-06T19:07:40.454Z,55.42
2023-01-06T19:10:35.086Z,53.75
2023-01-06T19:13:14.390Z,55.83
2023-01-06T19:15:45.868Z,58.35
2023-01-06T19:18:17.779Z,59.78
2023-01-06T19:20:47.736Z,59.65
2023-01-06T19:23:25.324Z,62.05
2023-01-06T19:26:07.368Z,58.30
2023-01-06T19:36:59.212Z,59.10
2023-01-06T19:39:39.730Z,62.88
2023-01-06T19:42:13.879Z,60.25
2023-01-06T19:44:42.514Z,61.20
2023-01-06T19:47:43.675Z,60.45
2023-01-06T19:50:20.044Z,62.50
2023-01-06T19:55:42.063Z,61.88
2023-01-06T19:58:21.529Z,60.08
2023-01-06T20:00:50.294Z,68.30
2023-01-06T20:03:37.897Z,65.65
2023-01-06T20:06:06.945Z,62.90
2023-01-06T20:08:34.041Z,63.60
2023-01-06T20:11:01.495Z,75.00
2023-01-06T20:13:33.369Z,74.15
2023-01-06T20:16:02.636Z,65.25
2023-01-06T20:26:53.952Z,61.67
2023-01-06T20:29:20.999Z,82.65
2023-01-06T20:31:50.285Z,105.65
2023-01-06T20:34:18.802Z,98.20
2023-01-06T20:36:45.950Z,88.43
2023-01-06T20:39:16.399Z,82.32
2023-01-06T20:41:43.361Z,84.15
2023-01-06T20:44:10.766Z,76.07
2023-01-06T20:46:37.647Z,77.32
2023-01-06T20:49:04.546Z,71.78
2023-01-06T20:51:34.786Z,74.40
2023-01-06T20:54:01.658Z,74.15
2023-01-06T20:56:28.629Z,75.07
2023-01-06T20:58:58.380Z,67.10
2023-01-06T21:01:25.405Z,67.78
2023-01-06T21:03:52.465Z,72.53
2023-01-06T21:06:19.969Z,70.07
2023-01-06T21:08:47.293Z,68.80
2023-01-06T21:11:14.205Z,61.53
2023-01-06T21:13:41.253Z,67.80
2023-01-06T21:16:09.988Z,61.42
2023-01-06T21:18:37.070Z,60.38
2023-01-06T21:21:04.643Z,69.68
2023-01-06T21:23:31.484Z,65.85
2023-01-06T21:25:58.332Z,72.72
2023-01-06T21:28:25.289Z,70.28
2023-01-06T21:30:52.136Z,77.45
2023-01-06T21:33:21.478Z,73.22
2023-01-06T21:38:29.339Z,74.95
2023-01-06T21:41:16.401Z,75.43
2023-01-06T21:43:43.258Z,74.65
2023-01-06T21:46:12.645Z,72.97
2023-01-06T21:48:44.925Z,75.60
2023-01-06T21:51:11.951Z,73.07
2023-01-06T21:53:39.222Z,71.93
2023-01-06T21:56:09.207Z,73.25
2023-01-06T21:58:36.294Z,68.25
2023-01-06T22:01:07.289Z,63.95
2023-01-06T22:03:34.643Z,68.97
2023-01-06T22:06:03.969Z,71.93
2023-01-06T22:08:32.709Z,66.35
2023-01-06T22:10:59.992Z,71.68
2023-01-06T22:13:27.245Z,74.53
2023-01-06T22:15:54.256Z,71.07
2023-01-06T22:18:21.339Z,71.57
2023-01-06T22:20:49.251Z,77.85
2023-01-06T22:23:19.276Z,67.28
2023-01-06T22:25:46.692Z,72.97
2023-01-06T22:28:17.063Z,71.85
2023-01-06T22:30:44.193Z,68.78
2023-01-06T22:33:15.105Z,73.60
2023-01-06T22:35:42.172Z,70.60
2023-01-06T22:38:09.109Z,76.53
2023-01-06T22:40:37.955Z,67.38
2023-01-06T22:43:11.039Z,74.90
2023-01-06T22:45:38.979Z,75.20
2023-01-06T22:48:07.728Z,72.25
2023-01-06T22:50:37.364Z,75.57
2023-01-06T22:53:04.266Z,66.65
2023-01-06T22:55:32.115Z,68.70
2023-01-06T22:58:03.794Z,69.55
2023-01-06T23:00:30.740Z,72.00
2023-01-06T23:02:57.932Z,68.10
2023-01-06T23:05:24.971Z,71.63
2023-01-06T23:07:53.052Z,68.65
2023-01-06T23:10:20.028Z,68.65
2023-01-06T23:12:46.866Z,70.93
2023-01-06T23:15:13.993Z,76.03
2023-01-06T23:17:40.902Z,74.55
2023-01-06T23:20:08.285Z,73.32
2023-01-06T23:22:35.317Z,72.82
2023-01-06T23:25:02.216Z,73.93
2023-01-06T23:27:31.232Z,77.72
2023-01-06T23:30:09.562Z,76.70
2023-01-06T23:32:36.443Z,75.40
2023-01-06T23:35:03.637Z,75.00
2023-01-06T23:37:30.506Z,80.20
2023-01-06T23:40:00.530Z,79.15
2023-01-06T23:42:28.781Z,75.72
2023-01-06T23:44:57.153Z,77.53
2023-01-06T23:47:24.124Z,76.45
2023-01-06T23:49:55.269Z,77.88
2023-01-06T23:52:22.810Z,78.65
2023-01-06T23:54:54.184Z,79.32
2023-01-06T23:57:21.114Z,82.47
2023-01-06T23:59:50.059Z,75.93
